METAR Data
IDs: Format: Raw Decoded Include TAF

Data at: 0514 UTC 24 Sep 2018

KOKC 240452Z 06004KT 10SM OVC016 20/18 A2996 RMK AO2 SLP134 T02000178
KOKC 240352Z 10003KT 10SM BKN016 BKN022 OVC033 20/18 A2996 RMK AO2 SLP135 T02000178
KOKC 240252Z 08003KT 10SM OVC018 20/18 A2996 RMK AO2 SLP135 T02000178 53008
KOKC 240152Z 07006KT 10SM OVC019 20/17 A2994 RMK AO2 SLP131 T02000172
KOKC 240052Z 07005KT 10SM OVC020 21/17 A2993 RMK AO2 SLP127 T02060172
KOKC 232352Z 05006KT 10SM OVC021 21/17 A2993 RMK AO2 SLP127 T02110172 10217 20194 56009
KOKC 232252Z 07006KT 10SM OVC019 21/17 A2994 RMK AO2 SLP128 T02110172
KOKC 232152Z 06006KT 10SM OVC019 21/17 A2994 RMK AO2 SLP129 T02110167
KOKC 232118Z 04007KT 10SM BKN016 OVC024 22/17 A2995 RMK AO2 T02170167
KOKC 232052Z 03004KT 10SM BKN014 BKN024 21/17 A2996 RMK AO2 SLP136 T02110167 58022
KOKC 231952Z 07004KT 10SM OVC013 20/17 A2998 RMK AO2 SLP144 T02000167
KOKC 231852Z 05006KT 10SM OVC012 19/16 A3001 RMK AO2 SLP153 T01940161
KOKC 231752Z 01006KT 10SM OVC012 19/16 A3003 RMK AO2 SLP159 60000 T01940161 10200 20161 58005
KOKC 231704Z 03009KT 10SM OVC010 19/16 A3004 RMK AO2 T01940156
KOKC 231652Z 02010KT 10SM OVC009 19/16 A3004 RMK AO2 SLP164 T01940156
KOKC 231552Z 02010KT 10SM OVC007 18/16 A3005 RMK AO2 DZE48 SLP165 P0000 T01780156
KOKC 231452Z 03010KT 10SM -DZ OVC007 17/16 A3005 RMK AO2 DZE14B48 SLP165 P0000 60000 T01720156 53010
KOKC 231414Z 04009KT 10SM R35R/5500VP6000FT OVC006 17/16 A3004 RMK AO2 DZE14 P0000 T01720156
KOKC 231352Z 03008KT 7SM -DZ OVC004 17/16 A3003 RMK AO2 SLP161 P0000 T01670156
KOKC 231334Z 02009KT 8SM -DZ OVC004 17/16 A3003 RMK AO2 P0000 T01670156
KOKC 231252Z 03009KT 10SM -DZ OVC006 17/16 A3002 RMK AO2 SLP158 P0000 T01670156
KOKC 231152Z 06010KT 10SM -DZ OVC006 17/16 A3002 RMK AO2 DZE03B43 SLP154 P0000 60000 T01670156 10183 20167 53001
KOKC 231052Z 07010KT 10SM -DZ OVC009 17/15 A3001 RMK AO2 DZB48 SLP150 P0000 T01720150
KOKC 231040Z 05009KT 10SM BKN009 OVC011 17/15 A3001 RMK AO2 T01720150
KOKC 231002Z 06009KT 10SM OVC010 17/15 A3001 RMK AO2 T01720150
KOKC 230952Z 05009KT 10SM OVC009 17/15 A3001 RMK AO2 SLP152 T01720150
KOKC 230947Z 06009KT 10SM OVC009 17/15 A3001 RMK AO2
KOKC 230852Z 05009KT 10SM OVC011 17/15 A3002 RMK AO2 SLP154 T01720150 56005
KOKC 230752Z 06010KT 10SM OVC013 18/16 A3002 RMK AO2 SLP156 T01780156
KOKC 230730Z 06009KT 10SM OVC014 18/16 A3002 RMK AO2 T01780156
KOKC 230652Z 08009KT 10SM FEW015 OVC018 18/15 A3003 RMK AO2 SLP158 T01830150
KOKC 230552Z 06008KT 10SM FEW015 OVC018 18/16 A3003 RMK AO2 SLP160 T01830156 10211 20183 402390150 56009
KOKC 230452Z 07008KT 10SM OVC020 19/16 A3004 RMK AO2 SLP162 T01940161
KOKC 230352Z 05008KT 10SM OVC023 19/16 A3005 RMK AO2 SLP165 T01940156
KOKC 230252Z 05010KT 10SM BKN024 20/16 A3006 RMK AO2 SLP171 T02000156 51008
KOKC 230225Z 07014KT 10SM BKN024 19/16 A3006 RMK AO2 T01940156
KOKC 230152Z 06007KT 10SM FEW025 FEW150 19/16 A3005 RMK AO2 SLP169 T01890156
KOKC 230052Z 06007KT 10SM FEW030 FEW150 19/16 A3004 RMK AO2 SLP166 T01940161
KOKC 222352Z 07010KT 10SM FEW031 SCT150 21/16 A3004 RMK AO2 SLP162 T02110161 10239 20206 55004
KOKC 222252Z 05013KT 10SM SCT030 BKN150 23/16 A3002 RMK AO2 SLP157 T02330161
KOKC 222152Z 06014G17KT 10SM BKN031 BKN200 23/16 A3004 RMK AO2 SLP161 T02280161
KOKC 222052Z 06011KT 10SM BKN033 BKN200 23/16 A3005 RMK AO2 SLP165 T02330161 56019
KOKC 222034Z 05014KT 10SM BKN031 23/16 A3005 RMK AO2 T02280161
KOKC 221952Z 04012KT 10SM BKN028 BKN032 BKN250 23/16 A3006 RMK AO2 SLP171 T02280161
KOKC 221852Z 04016KT 10SM BKN022 BKN026 BKN250 22/16 A3008 RMK AO2 SLP178 T02220156
KOKC 221752Z 03015KT 10SM BKN019 BKN250 21/15 A3011 RMK AO2 SLP186 60000 T02060150 10206 20150 58010